Time;durP1;ratioP1;P1;durP2;ratioP2;P2;SDS_P1;SDS_P2;PMS_P1;PMS_P2;Temp;Humidity;BMP_temperature;BMP_pressure;BME280_temperature;BME280_humidity;BME280_pressure;Samples;Min_cycle;Max_cycle;Signal;HPM_P1;HPM_P2
2023/03/14 00:00:06;;;;;;;6.60;4.20;;;;;;;;;;5072632;28;20456;-69
2023/03/14 00:02:33;;;;;;;5.63;3.57;;;;;;;;;;5072527;28;20452;-70
2023/03/14 00:05:02;;;;;;;5.90;4.80;;;;;;;;;;5071899;28;20495;-70
2023/03/14 00:07:33;;;;;;;6.63;5.10;;;;;;;;;;5072690;28;20451;-69
2023/03/14 00:10:01;;;;;;;7.40;4.07;;;;;;;;;;5072435;28;20491;-69
2023/03/14 00:12:28;;;;;;;7.70;3.60;;;;;;;;;;5072602;28;20456;-70
2023/03/14 00:14:55;;;;;;;4.80;3.20;;;;;;;;;;5072262;28;20451;-70
2023/03/14 00:17:22;;;;;;;7.00;3.50;;;;;;;;;;5072333;28;20460;-70
2023/03/14 00:19:52;;;;;;;6.07;3.50;;;;;;;;;;5072382;28;20501;-70
2023/03/14 00:22:19;;;;;;;6.30;3.40;;;;;;;;;;5072439;28;20490;-70
2023/03/14 00:24:47;;;;;;;6.17;3.30;;;;;;;;;;5072203;28;20462;-70
2023/03/14 00:27:14;;;;;;;7.10;3.40;;;;;;;;;;5072418;28;20455;-69
2023/03/14 00:29:43;;;;;;;5.77;3.37;;;;;;;;;;5072220;28;20460;-70
2023/03/14 00:32:10;;;;;;;4.00;3.17;;;;;;;;;;5074624;28;20494;-70
2023/03/14 00:34:38;;;;;;;7.63;3.40;;;;;;;;;;5076015;28;20443;-70
2023/03/14 00:37:05;;;;;;;4.50;2.90;;;;;;;;;;5076254;28;20448;-70
2023/03/14 00:39:32;;;;;;;5.00;2.90;;;;;;;;;;5076130;28;20812;-69
2023/03/14 00:42:00;;;;;;;4.17;3.10;;;;;;;;;;5075844;28;20475;-70
2023/03/14 00:44:27;;;;;;;6.53;3.50;;;;;;;;;;5075591;28;20464;-69
2023/03/14 00:46:55;;;;;;;4.70;3.43;;;;;;;;;;5075952;28;20487;-70
2023/03/14 00:49:22;;;;;;;4.30;3.37;;;;;;;;;;5075707;28;20451;-69
2023/03/14 00:51:49;;;;;;;3.53;2.93;;;;;;;;;;5075923;28;20472;-69
2023/03/14 00:54:16;;;;;;;7.83;4.40;;;;;;;;;;5075618;28;20933;-69
2023/03/14 00:56:43;;;;;;;6.67;3.50;;;;;;;;;;5075877;28;20447;-70
2023/03/14 00:59:11;;;;;;;8.10;4.80;;;;;;;;;;5075484;28;20455;-70
2023/03/14 01:01:39;;;;;;;7.70;3.47;;;;;;;;;;5075645;28;20464;-70
2023/03/14 01:04:07;;;;;;;6.70;3.50;;;;;;;;;;5075236;28;20455;-69
2023/03/14 01:06:34;;;;;;;5.97;4.20;;;;;;;;;;5074999;28;20988;-70
2023/03/14 01:09:02;;;;;;;4.07;3.60;;;;;;;;;;5075237;28;20451;-70
2023/03/14 01:11:30;;;;;;;3.70;3.13;;;;;;;;;;5075215;28;20468;-69
2023/03/14 01:13:57;;;;;;;5.37;3.73;;;;;;;;;;5075270;28;20479;-69
2023/03/14 01:16:27;;;;;;;3.60;2.90;;;;;;;;;;5075218;28;20451;-69
2023/03/14 01:18:54;;;;;;;5.03;3.07;;;;;;;;;;5075267;28;20455;-69
2023/03/14 01:21:23;;;;;;;5.87;3.90;;;;;;;;;;5075330;28;20468;-69
2023/03/14 01:23:50;;;;;;;8.93;5.07;;;;;;;;;;5075035;28;20463;-69
2023/03/14 01:26:19;;;;;;;6.33;5.40;;;;;;;;;;5075101;28;20992;-69
2023/03/14 01:28:46;;;;;;;9.20;4.27;;;;;;;;;;5075159;28;20447;-69
2023/03/14 01:31:13;;;;;;;8.80;3.33;;;;;;;;;;5075065;28;20490;-69
2023/03/14 01:33:42;;;;;;;5.00;3.80;;;;;;;;;;5075022;28;20929;-69
2023/03/14 01:36:10;;;;;;;6.20;3.53;;;;;;;;;;5074867;28;20455;-70
2023/03/14 01:38:38;;;;;;;3.40;3.10;;;;;;;;;;5074975;28;20452;-69
2023/03/14 01:41:05;;;;;;;3.90;2.83;;;;;;;;;;5074943;28;20839;-69
2023/03/14 01:43:32;;;;;;;2.93;2.40;;;;;;;;;;5074322;28;20467;-69
2023/03/14 01:46:20;;;;;;;5.83;2.67;;;;;;;;;;5074828;28;20991;-69
2023/03/14 01:48:51;;;;;;;4.20;2.80;;;;;;;;;;5074916;28;20455;-70
2023/03/14 01:51:19;;;;;;;3.30;2.77;;;;;;;;;;5074846;28;20463;-70
2023/03/14 01:53:48;;;;;;;2.50;2.10;;;;;;;;;;5074563;28;20447;-69
2023/03/14 01:56:15;;;;;;;4.37;2.47;;;;;;;;;;5074670;28;20447;-70
2023/03/14 01:58:45;;;;;;;5.43;3.60;;;;;;;;;;5074696;28;20443;-69
2023/03/14 02:01:12;;;;;;;7.40;3.70;;;;;;;;;;5074572;28;20836;-70
2023/03/14 02:03:45;;;;;;;3.00;2.50;;;;;;;;;;5074754;28;20444;-69
2023/03/14 02:06:16;;;;;;;3.63;2.50;;;;;;;;;;5073808;28;21012;-69
2023/03/14 02:08:47;;;;;;;3.60;2.90;;;;;;;;;;5074401;28;20459;-69
2023/03/14 02:11:14;;;;;;;2.60;2.20;;;;;;;;;;5074227;28;20996;-69
2023/03/14 02:13:41;;;;;;;3.93;2.73;;;;;;;;;;5074071;28;20455;-69
2023/03/14 02:16:09;;;;;;;4.20;2.83;;;;;;;;;;5074153;28;20937;-69
2023/03/14 02:18:36;;;;;;;3.60;2.83;;;;;;;;;;5074315;28;20451;-69
2023/03/14 02:21:07;;;;;;;2.83;2.30;;;;;;;;;;5073985;28;20501;-69
2023/03/14 02:23:39;;;;;;;3.20;2.67;;;;;;;;;;5074012;28;20456;-69
2023/03/14 02:26:10;;;;;;;5.53;3.23;;;;;;;;;;5073784;28;20490;-69
2023/03/14 02:28:38;;;;;;;6.00;3.37;;;;;;;;;;5074065;28;20458;-69
2023/03/14 02:31:06;;;;;;;5.30;2.73;;;;;;;;;;5073751;28;20861;-70
2023/03/14 02:33:33;;;;;;;4.57;2.83;;;;;;;;;;5073577;28;20464;-69
2023/03/14 02:36:01;;;;;;;4.33;2.40;;;;;;;;;;5073746;28;20455;-69
2023/03/14 02:38:30;;;;;;;3.50;2.90;;;;;;;;;;5073898;28;20828;-69
2023/03/14 02:40:58;;;;;;;3.70;2.73;;;;;;;;;;5073583;28;20475;-69
2023/03/14 02:43:25;;;;;;;4.07;2.93;;;;;;;;;;5073710;28;20956;-69
2023/03/14 02:45:54;;;;;;;3.43;2.70;;;;;;;;;;5073417;28;20996;-69
2023/03/14 02:48:22;;;;;;;6.33;3.03;;;;;;;;;;5073437;28;20456;-69
2023/03/14 02:50:50;;;;;;;2.77;2.30;;;;;;;;;;5073474;28;20848;-70
2023/03/14 02:53:19;;;;;;;2.50;1.90;;;;;;;;;;5073126;28;20455;-69
2023/03/14 02:55:47;;;;;;;2.93;1.80;;;;;;;;;;5072988;28;20454;-70
2023/03/14 02:58:14;;;;;;;2.87;1.50;;;;;;;;;;5073109;28;20551;-70
2023/03/14 03:00:41;;;;;;;2.13;1.40;;;;;;;;;;5073402;28;20475;-70
2023/03/14 03:03:10;;;;;;;1.90;1.20;;;;;;;;;;5073537;28;20450;-70
2023/03/14 03:05:37;;;;;;;1.57;1.10;;;;;;;;;;5072613;28;20447;-70
2023/03/14 03:08:04;;;;;;;3.63;1.47;;;;;;;;;;5073259;28;20546;-70
2023/03/14 03:10:32;;;;;;;3.30;1.67;;;;;;;;;;5073218;28;20467;-70
2023/03/14 03:12:59;;;;;;;1.70;1.20;;;;;;;;;;5073125;28;20456;-70
2023/03/14 03:15:26;;;;;;;2.00;1.20;;;;;;;;;;5073323;28;20450;-70
2023/03/14 03:17:53;;;;;;;2.47;2.00;;;;;;;;;;5073147;28;20459;-70
2023/03/14 03:20:22;;;;;;;1.60;1.20;;;;;;;;;;5073069;28;20961;-71
2023/03/14 03:22:49;;;;;;;1.93;1.20;;;;;;;;;;5073070;28;20454;-71
2023/03/14 03:25:17;;;;;;;2.13;1.20;;;;;;;;;;5072783;28;20467;-71
2023/03/14 03:27:44;;;;;;;2.93;1.20;;;;;;;;;;5073115;28;20850;-71
2023/03/14 03:30:11;;;;;;;2.20;1.47;;;;;;;;;;5072847;28;20479;-71
2023/03/14 03:32:38;;;;;;;2.03;1.30;;;;;;;;;;5072992;28;20448;-71
2023/03/14 03:35:06;;;;;;;1.97;1.20;;;;;;;;;;5072803;28;20456;-71
2023/03/14 03:37:35;;;;;;;2.03;1.23;;;;;;;;;;5072852;28;20458;-71
2023/03/14 03:40:04;;;;;;;1.40;1.10;;;;;;;;;;5072953;28;20478;-71
2023/03/14 03:42:31;;;;;;;2.23;1.17;;;;;;;;;;5073084;28;20456;-72
2023/03/14 03:44:59;;;;;;;1.67;1.13;;;;;;;;;;5072673;28;20459;-72
2023/03/14 03:47:26;;;;;;;1.40;1.00;;;;;;;;;;5072835;28;20510;-71
2023/03/14 03:49:53;;;;;;;1.87;1.13;;;;;;;;;;5072685;28;20459;-72
2023/03/14 03:52:20;;;;;;;2.63;1.20;;;;;;;;;;5072798;28;20447;-72
2023/03/14 03:54:49;;;;;;;2.70;1.10;;;;;;;;;;5072699;28;20848;-72
2023/03/14 03:57:16;;;;;;;2.70;1.53;;;;;;;;;;5072689;28;20455;-72
2023/03/14 03:59:43;;;;;;;2.93;1.27;;;;;;;;;;5073199;28;20810;-71
2023/03/14 04:02:10;;;;;;;2.47;1.47;;;;;;;;;;5072381;28;20550;-72
2023/03/14 04:04:38;;;;;;;4.90;2.27;;;;;;;;;;5072147;28;20452;-72
2023/03/14 04:07:05;;;;;;;3.73;1.43;;;;;;;;;;5076643;28;20483;-72
2023/03/14 04:09:32;;;;;;;3.30;1.40;;;;;;;;;;5076615;28;20455;-72
2023/03/14 04:12:01;;;;;;;2.33;1.33;;;;;;;;;;5076635;28;20471;-72
2023/03/14 04:14:28;;;;;;;2.37;1.40;;;;;;;;;;5076440;28;20959;-71
2023/03/14 04:16:55;;;;;;;1.87;1.40;;;;;;;;;;5076408;28;20452;-72
2023/03/14 04:19:22;;;;;;;2.10;1.00;;;;;;;;;;5076463;28;20451;-72
2023/03/14 04:21:49;;;;;;;1.90;1.37;;;;;;;;;;5076249;28;20513;-72
2023/03/14 04:24:16;;;;;;;1.50;1.17;;;;;;;;;;5076358;28;20455;-72
2023/03/14 04:26:44;;;;;;;1.87;1.30;;;;;;;;;;5076521;28;21011;-72
2023/03/14 04:29:12;;;;;;;1.90;1.50;;;;;;;;;;5076141;28;20454;-71
2023/03/14 04:31:39;;;;;;;2.30;1.40;;;;;;;;;;5076052;28;20857;-72
2023/03/14 04:34:06;;;;;;;3.60;1.90;;;;;;;;;;5076035;28;20458;-71
2023/03/14 04:36:33;;;;;;;1.90;1.63;;;;;;;;;;5076088;28;20454;-72
2023/03/14 04:39:00;;;;;;;3.17;2.20;;;;;;;;;;5076347;28;20538;-72
2023/03/14 04:41:28;;;;;;;2.83;1.67;;;;;;;;;;5075962;28;20463;-71
2023/03/14 04:43:55;;;;;;;1.80;1.50;;;;;;;;;;5076007;28;20458;-71
2023/03/14 04:46:23;;;;;;;1.93;1.50;;;;;;;;;;5075837;28;20468;-72
2023/03/14 04:48:50;;;;;;;3.93;2.10;;;;;;;;;;5075841;28;20460;-71
2023/03/14 04:51:17;;;;;;;2.57;2.10;;;;;;;;;;5075614;28;20463;-72
2023/03/14 04:53:44;;;;;;;4.33;3.17;;;;;;;;;;5075868;28;20478;-71
2023/03/14 04:56:12;;;;;;;3.13;2.20;;;;;;;;;;5075899;28;20455;-71
2023/03/14 04:58:39;;;;;;;2.70;1.83;;;;;;;;;;5075825;28;20978;-72
2023/03/14 05:01:07;;;;;;;4.00;2.83;;;;;;;;;;5075582;28;20554;-71
2023/03/14 05:03:37;;;;;;;2.60;2.10;;;;;;;;;;5075441;28;20459;-71
2023/03/14 05:06:05;;;;;;;2.70;1.40;;;;;;;;;;5075070;28;20455;-71
2023/03/14 05:08:32;;;;;;;3.53;2.07;;;;;;;;;;5075419;28;20476;-72
2023/03/14 05:11:00;;;;;;;2.63;1.50;;;;;;;;;;5075453;28;20490;-72
2023/03/14 05:13:27;;;;;;;2.57;1.50;;;;;;;;;;5075741;28;20479;-72
2023/03/14 05:15:55;;;;;;;2.50;1.60;;;;;;;;;;5075331;28;20454;-71
2023/03/14 05:18:22;;;;;;;2.33;1.67;;;;;;;;;;5074624;28;20455;-71
2023/03/14 05:20:56;;;;;;;3.53;2.07;;;;;;;;;;5075380;28;20475;-72
2023/03/14 05:23:23;;;;;;;4.20;2.60;;;;;;;;;;5075221;28;20479;-71
2023/03/14 05:25:50;;;;;;;5.83;3.43;;;;;;;;;;5075204;28;20455;-71
2023/03/14 05:28:18;;;;;;;3.67;3.30;;;;;;;;;;5075218;28;20480;-71
2023/03/14 05:30:45;;;;;;;2.80;2.00;;;;;;;;;;5075008;28;20490;-72
2023/03/14 05:33:12;;;;;;;2.80;1.80;;;;;;;;;;5075217;28;20456;-72
2023/03/14 05:35:39;;;;;;;4.00;2.40;;;;;;;;;;5074932;28;20462;-72
2023/03/14 05:38:07;;;;;;;3.67;2.90;;;;;;;;;;5075182;28;20448;-71
2023/03/14 05:40:35;;;;;;;2.03;1.80;;;;;;;;;;5074918;28;20479;-71
2023/03/14 05:43:02;;;;;;;1.60;1.20;;;;;;;;;;5075343;28;20451;-71
2023/03/14 05:45:30;;;;;;;2.60;1.60;;;;;;;;;;5074753;28;20452;-72
2023/03/14 05:47:57;;;;;;;13.20;6.87;;;;;;;;;;5075172;28;20980;-71
2023/03/14 05:50:24;;;;;;;13.80;6.87;;;;;;;;;;5075198;28;20472;-71
2023/03/14 05:52:51;;;;;;;5.37;3.00;;;;;;;;;;5074751;28;20447;-71
2023/03/14 05:55:19;;;;;;;3.90;3.00;;;;;;;;;;5074803;28;20451;-71
2023/03/14 05:57:46;;;;;;;3.00;2.37;;;;;;;;;;5074313;28;20468;-71
2023/03/14 06:00:14;;;;;;;2.87;2.00;;;;;;;;;;5074568;28;20480;-72
2023/03/14 06:02:41;;;;;;;4.00;2.97;;;;;;;;;;5074715;28;20462;-71
2023/03/14 06:05:09;;;;;;;2.10;1.60;;;;;;;;;;5073451;28;20828;-71
2023/03/14 06:07:36;;;;;;;4.83;2.50;;;;;;;;;;5074179;28;20479;-71
2023/03/14 06:10:03;;;;;;;4.00;3.20;;;;;;;;;;5074078;28;20455;-71
2023/03/14 06:12:32;;;;;;;4.57;3.37;;;;;;;;;;5074280;28;20550;-72
2023/03/14 06:14:59;;;;;;;3.70;2.70;;;;;;;;;;5074301;28;20933;-71
2023/03/14 06:17:26;;;;;;;5.13;4.20;;;;;;;;;;5074194;28;20463;-71
2023/03/14 06:19:53;;;;;;;23.83;15.07;;;;;;;;;;5074008;28;20451;-71
2023/03/14 06:22:20;;;;;;;13.93;10.10;;;;;;;;;;5073857;28;20812;-71
2023/03/14 06:24:47;;;;;;;18.27;12.43;;;;;;;;;;5074024;28;20451;-72
2023/03/14 06:27:14;;;;;;;29.03;14.20;;;;;;;;;;5073638;28;20486;-72
2023/03/14 06:29:43;;;;;;;33.77;17.10;;;;;;;;;;5073118;28;20443;-72
2023/03/14 06:32:10;;;;;;;15.63;9.60;;;;;;;;;;5073646;28;20487;-71
2023/03/14 06:34:38;;;;;;;4.37;3.07;;;;;;;;;;5074002;28;20452;-71
2023/03/14 06:37:05;;;;;;;6.43;1.90;;;;;;;;;;5073848;28;20554;-72
2023/03/14 06:39:32;;;;;;;2.80;2.40;;;;;;;;;;5073883;28;20487;-71
2023/03/14 06:41:59;;;;;;;3.97;2.17;;;;;;;;;;5073907;28;20471;-71
2023/03/14 06:44:26;;;;;;;4.87;2.30;;;;;;;;;;5073770;28;20452;-71
2023/03/14 06:46:55;;;;;;;4.03;3.00;;;;;;;;;;5073689;28;20952;-71
2023/03/14 06:49:22;;;;;;;4.57;2.63;;;;;;;;;;5073528;28;20440;-71
2023/03/14 06:51:49;;;;;;;2.77;2.30;;;;;;;;;;5073759;28;20837;-71
2023/03/14 06:54:16;;;;;;;2.60;2.20;;;;;;;;;;5073323;28;20461;-71
2023/03/14 06:56:43;;;;;;;3.87;1.90;;;;;;;;;;5072345;28;20479;-71
2023/03/14 06:59:11;;;;;;;4.40;2.97;;;;;;;;;;5073540;28;20451;-71
2023/03/14 07:01:38;;;;;;;6.23;3.97;;;;;;;;;;5073750;28;20570;-72
2023/03/14 07:04:06;;;;;;;3.43;2.60;;;;;;;;;;5073470;28;20951;-71
2023/03/14 07:06:34;;;;;;;3.50;2.20;;;;;;;;;;5073439;28;20961;-71
2023/03/14 07:09:01;;;;;;;3.53;2.60;;;;;;;;;;5073618;28;20819;-71
2023/03/14 07:11:29;;;;;;;2.80;2.27;;;;;;;;;;5073238;28;20474;-71
2023/03/14 07:13:56;;;;;;;6.80;2.50;;;;;;;;;;5073389;28;20440;-71
2023/03/14 07:16:23;;;;;;;2.37;2.03;;;;;;;;;;5073123;28;20463;-71
2023/03/14 07:18:50;;;;;;;3.03;2.00;;;;;;;;;;5073235;28;20808;-71
2023/03/14 07:21:18;;;;;;;7.07;2.50;;;;;;;;;;5073202;28;20472;-71
2023/03/14 07:23:45;;;;;;;3.70;2.30;;;;;;;;;;5073077;28;20827;-72
2023/03/14 07:26:13;;;;;;;3.20;2.23;;;;;;;;;;5073476;28;20463;-71
2023/03/14 07:28:40;;;;;;;2.80;2.30;;;;;;;;;;5072885;28;20487;-71
2023/03/14 07:31:07;;;;;;;3.00;1.93;;;;;;;;;;5072939;28;20851;-71
2023/03/14 07:33:34;;;;;;;2.73;1.77;;;;;;;;;;5072986;28;20533;-71
2023/03/14 07:36:02;;;;;;;2.53;2.10;;;;;;;;;;5073179;28;20538;-71
2023/03/14 07:38:30;;;;;;;1.97;1.67;;;;;;;;;;5072908;28;20448;-71
2023/03/14 07:41:01;;;;;;;2.47;1.87;;;;;;;;;;5072674;28;20938;-71
2023/03/14 07:43:28;;;;;;;3.50;2.20;;;;;;;;;;5072938;28;20451;-69
2023/03/14 07:45:55;;;;;;;2.77;2.00;;;;;;;;;;5072952;28;20455;-71
2023/03/14 07:48:24;;;;;;;4.60;1.97;;;;;;;;;;5073200;28;20484;-71
2023/03/14 07:50:52;;;;;;;5.30;1.83;;;;;;;;;;5072740;28;20475;-72
2023/03/14 07:53:19;;;;;;;2.10;1.30;;;;;;;;;;5073036;28;20458;-71
2023/03/14 07:55:48;;;;;;;2.50;1.40;;;;;;;;;;5072652;28;20459;-71
2023/03/14 07:58:16;;;;;;;3.30;2.20;;;;;;;;;;5073055;28;20861;-71
2023/03/14 08:00:43;;;;;;;3.70;1.70;;;;;;;;;;5072943;28;20480;-71
2023/03/14 08:03:10;;;;;;;4.70;2.73;;;;;;;;;;5072750;28;20463;-71
2023/03/14 08:05:38;;;;;;;2.73;2.10;;;;;;;;;;5072238;28;20452;-71
2023/03/14 08:08:06;;;;;;;1.63;1.23;;;;;;;;;;5072878;28;20478;-71
2023/03/14 08:10:33;;;;;;;2.47;2.07;;;;;;;;;;5072893;28;20482;-71
2023/03/14 08:13:02;;;;;;;2.40;1.83;;;;;;;;;;5072687;28;20921;-71
2023/03/14 08:15:30;;;;;;;3.27;2.40;;;;;;;;;;5072851;28;20451;-71
2023/03/14 08:17:57;;;;;;;6.23;1.97;;;;;;;;;;5072594;28;20448;-71
2023/03/14 08:20:25;;;;;;;1.57;1.30;;;;;;;;;;5072376;28;20483;-71
2023/03/14 08:22:52;;;;;;;1.60;1.20;;;;;;;;;;5072942;28;20458;-71
2023/03/14 08:25:20;;;;;;;3.03;1.30;;;;;;;;;;5072518;28;20454;-71
2023/03/14 08:27:47;;;;;;;1.93;1.40;;;;;;;;;;5072303;28;20479;-71
2023/03/14 08:30:16;;;;;;;2.63;2.10;;;;;;;;;;5072202;28;20471;-71
2023/03/14 08:32:44;;;;;;;2.63;1.33;;;;;;;;;;5072727;28;20471;-71
2023/03/14 08:35:11;;;;;;;3.80;2.10;;;;;;;;;;5072488;28;20926;-71
2023/03/14 08:37:39;;;;;;;2.97;2.20;;;;;;;;;;5072332;28;20495;-71
2023/03/14 08:40:09;;;;;;;2.50;1.73;;;;;;;;;;5072260;28;20452;-71
2023/03/14 08:42:37;;;;;;;1.80;1.30;;;;;;;;;;5072664;28;20557;-71
2023/03/14 08:45:04;;;;;;;2.47;1.40;;;;;;;;;;5072380;28;20820;-71
2023/03/14 08:47:33;;;;;;;1.80;1.50;;;;;;;;;;5072615;28;20455;-71
2023/03/14 08:50:00;;;;;;;1.93;1.73;;;;;;;;;;5072441;28;20436;-71
2023/03/14 08:52:27;;;;;;;2.33;1.53;;;;;;;;;;5071287;28;20804;-71
2023/03/14 08:54:54;;;;;;;1.67;1.40;;;;;;;;;;5074751;28;20431;-71
2023/03/14 08:57:27;;;;;;;1.80;1.40;;;;;;;;;;5074633;28;20448;-71
2023/03/14 08:59:54;;;;;;;5.67;1.53;;;;;;;;;;5074481;28;20431;-71
2023/03/14 09:02:22;;;;;;;1.90;1.27;;;;;;;;;;5074305;28;20471;-71
2023/03/14 09:04:51;;;;;;;2.47;1.20;;;;;;;;;;5073926;28;20451;-71
2023/03/14 09:07:18;;;;;;;2.20;1.43;;;;;;;;;;5074095;28;20431;-71
2023/03/14 09:09:45;;;;;;;2.70;1.40;;;;;;;;;;5074640;28;20479;-71
2023/03/14 09:12:12;;;;;;;3.03;2.10;;;;;;;;;;5074011;28;20472;-71
2023/03/14 09:14:40;;;;;;;5.00;2.77;;;;;;;;;;5074252;28;20458;-70
2023/03/14 09:17:07;;;;;;;3.57;3.10;;;;;;;;;;5074163;28;20455;-70
2023/03/14 09:19:34;;;;;;;7.00;2.30;;;;;;;;;;5074247;28;20458;-71
2023/03/14 09:22:03;;;;;;;2.30;1.83;;;;;;;;;;5074086;28;20463;-71
2023/03/14 09:24:30;;;;;;;4.13;1.90;;;;;;;;;;5074001;28;20450;-71
2023/03/14 09:26:58;;;;;;;3.37;2.23;;;;;;;;;;5073916;28;20439;-71
2023/03/14 09:29:25;;;;;;;2.20;2.00;;;;;;;;;;5073699;28;20479;-71
2023/03/14 09:31:52;;;;;;;4.10;2.40;;;;;;;;;;5073752;28;20484;-71
2023/03/14 09:34:19;;;;;;;7.20;5.27;;;;;;;;;;5073915;28;20822;-71
2023/03/14 09:36:46;;;;;;;17.10;12.00;;;;;;;;;;5073590;28;20510;-71
2023/03/14 09:39:16;;;;;;;5.00;3.00;;;;;;;;;;5074023;28;20825;-71
2023/03/14 09:41:45;;;;;;;6.77;2.53;;;;;;;;;;5073711;28;20480;-72
2023/03/14 09:44:14;;;;;;;3.30;2.27;;;;;;;;;;5073616;28;20463;-71
2023/03/14 09:46:42;;;;;;;2.80;2.00;;;;;;;;;;5073681;28;20455;-71
2023/03/14 09:49:13;;;;;;;3.37;2.00;;;;;;;;;;5073395;28;20479;-71
2023/03/14 09:51:40;;;;;;;23.13;15.27;;;;;;;;;;5073622;28;20523;-72
2023/03/14 09:54:10;;;;;;;3.03;2.43;;;;;;;;;;5073292;28;20466;-71
2023/03/14 09:56:38;;;;;;;2.53;1.70;;;;;;;;;;5073324;28;20467;-72
2023/03/14 09:59:06;;;;;;;2.20;1.20;;;;;;;;;;5073521;28;20443;-72
2023/03/14 10:01:35;;;;;;;2.07;1.20;;;;;;;;;;5073324;28;20482;-71
2023/03/14 10:04:04;;;;;;;2.47;1.50;;;;;;;;;;5073377;28;20451;-72
2023/03/14 10:06:31;;;;;;;1.73;1.17;;;;;;;;;;5072985;28;20455;-72
2023/03/14 10:08:59;;;;;;;1.50;1.10;;;;;;;;;;5073537;28;20831;-71
2023/03/14 10:11:26;;;;;;;1.97;1.50;;;;;;;;;;5073291;28;20482;-71
2023/03/14 10:14:19;;;;;;;4.50;2.83;;;;;;;;;;5073373;28;20451;-71
2023/03/14 10:16:47;;;;;;;2.67;2.00;;;;;;;;;;5069147;28;20464;-71
2023/03/14 10:19:16;;;;;;;3.20;2.30;;;;;;;;;;5073249;28;20448;-72
2023/03/14 10:21:44;;;;;;;3.03;1.80;;;;;;;;;;5073097;28;20472;-71
2023/03/14 10:24:18;;;;;;;2.37;1.77;;;;;;;;;;5072981;28;20538;-71
2023/03/14 10:26:45;;;;;;;2.23;1.70;;;;;;;;;;5073122;28;20439;-71
2023/03/14 10:29:13;;;;;;;2.60;1.90;;;;;;;;;;5072917;28;20842;-70
2023/03/14 10:31:52;;;;;;;2.20;1.40;;;;;;;;;;5072505;28;20490;-71
2023/03/14 10:34:22;;;;;;;3.07;2.10;;;;;;;;;;5072982;28;20457;-71
2023/03/14 10:36:53;;;;;;;3.90;3.30;;;;;;;;;;5072788;28;20432;-71
2023/03/14 10:39:27;;;;;;;4.17;2.03;;;;;;;;;;5072864;28;20846;-71
2023/03/14 10:41:56;;;;;;;2.00;1.37;;;;;;;;;;5072759;28;20550;-71
2023/03/14 10:44:25;;;;;;;2.83;1.67;;;;;;;;;;5072508;28;20459;-71
2023/03/14 10:47:00;;;;;;;2.33;1.63;;;;;;;;;;5072757;28;20452;-71
2023/03/14 10:49:29;;;;;;;13.10;2.00;;;;;;;;;;5073041;28;20501;-71
2023/03/14 10:51:56;;;;;;;3.10;2.27;;;;;;;;;;5073168;28;20476;-71
2023/03/14 10:54:24;;;;;;;3.53;2.10;;;;;;;;;;5073448;28;20474;-71
2023/03/14 10:56:59;;;;;;;3.00;1.93;;;;;;;;;;5073461;28;20451;-71
2023/03/14 10:59:27;;;;;;;2.10;1.63;;;;;;;;;;5073349;28;20550;-71
2023/03/14 11:01:57;;;;;;;2.93;2.10;;;;;;;;;;5073619;28;20804;-71
2023/03/14 11:04:44;;;;;;;8.30;2.23;;;;;;;;;;5073541;28;20452;-71
2023/03/14 11:07:15;;;;;;;6.63;2.10;;;;;;;;;;5073433;28;20446;-70
2023/03/14 11:09:45;;;;;;;3.63;2.40;;;;;;;;;;5073590;28;20471;-71
2023/03/14 11:12:22;;;;;;;2.30;1.50;;;;;;;;;;5073457;28;20467;-71
2023/03/14 11:14:52;;;;;;;2.80;1.63;;;;;;;;;;5072980;28;20806;-71
2023/03/14 11:17:24;;;;;;;3.30;1.67;;;;;;;;;;5073094;28;20461;-71
2023/03/14 11:19:55;;;;;;;1.50;1.20;;;;;;;;;;5073088;28;20467;-71
2023/03/14 11:22:24;;;;;;;2.40;1.73;;;;;;;;;;5073646;28;20444;-72
2023/03/14 11:24:59;;;;;;;3.10;1.93;;;;;;;;;;5073236;28;20459;-71
2023/03/14 11:27:28;;;;;;;3.70;2.20;;;;;;;;;;5073377;28;20786;-71
2023/03/14 11:29:57;;;;;;;5.00;2.27;;;;;;;;;;5072925;28;20491;-71
2023/03/14 11:32:36;;;;;;;5.37;2.60;;;;;;;;;;5073236;28;20448;-71
2023/03/14 11:35:10;;;;;;;6.37;2.40;;;;;;;;;;5073366;28;20428;-71
2023/03/14 11:37:42;;;;;;;3.00;2.10;;;;;;;;;;5073270;28;20854;-72
2023/03/14 11:40:13;;;;;;;5.87;2.90;;;;;;;;;;5073155;28;20970;-71
2023/03/14 11:42:41;;;;;;;4.60;3.23;;;;;;;;;;5073173;28;20459;-71
2023/03/14 11:45:15;;;;;;;2.93;2.73;;;;;;;;;;5073483;28;20450;-71
2023/03/14 11:47:43;;;;;;;3.43;1.87;;;;;;;;;;5073159;28;20427;-72
2023/03/14 11:50:16;;;;;;;2.13;1.40;;;;;;;;;;5073024;28;20980;-72
2023/03/14 11:52:46;;;;;;;1.90;1.43;;;;;;;;;;5073353;28;20444;-71
2023/03/14 11:55:14;;;;;;;3.07;1.80;;;;;;;;;;5073228;28;20456;-71
2023/03/14 11:57:41;;;;;;;2.23;1.60;;;;;;;;;;5073323;28;20813;-72
2023/03/14 12:00:15;;;;;;;1.97;1.40;;;;;;;;;;5072670;28;20443;-72
2023/03/14 12:02:47;;;;;;;2.40;1.70;;;;;;;;;;5072784;28;20440;-72
2023/03/14 12:05:27;;;;;;;2.00;1.47;;;;;;;;;;5073142;28;20446;-71
2023/03/14 12:08:05;;;;;;;2.50;1.17;;;;;;;;;;5072989;28;20452;-72
2023/03/14 12:10:38;;;;;;;2.50;1.60;;;;;;;;;;5072547;28;20490;-72
2023/03/14 12:13:05;;;;;;;1.70;1.20;;;;;;;;;;5073066;28;20787;-72
2023/03/14 12:15:34;;;;;;;1.73;1.20;;;;;;;;;;5072727;28;20460;-72
2023/03/14 12:18:01;;;;;;;1.90;1.30;;;;;;;;;;5072889;28;20834;-71
2023/03/14 12:20:30;;;;;;;2.23;1.10;;;;;;;;;;5072782;28;20483;-72
2023/03/14 12:22:58;;;;;;;1.70;1.20;;;;;;;;;;5072833;28;20933;-74
2023/03/14 12:25:26;;;;;;;1.60;1.27;;;;;;;;;;5072766;28;20462;-72
2023/03/14 12:28:08;;;;;;;1.90;1.20;;;;;;;;;;5074501;28;20454;-72
2023/03/14 12:30:36;;;;;;;2.10;1.27;;;;;;;;;;5073041;28;20487;-72
2023/03/14 12:33:13;;;;;;;1.77;1.17;;;;;;;;;;5076483;28;20464;-73
2023/03/14 12:35:42;;;;;;;1.50;1.00;;;;;;;;;;5076176;28;20467;-73
2023/03/14 12:38:11;;;;;;;1.70;1.13;;;;;;;;;;5073913;28;20818;-72
2023/03/14 12:40:40;;;;;;;1.70;1.20;;;;;;;;;;5074851;28;20472;-72
2023/03/14 12:43:25;;;;;;;6.13;1.20;;;;;;;;;;5068237;28;20551;-72
2023/03/14 12:46:07;;;;;;;2.90;1.73;;;;;;;;;;5054897;28;20900;-72
2023/03/14 12:48:34;;;;;;;3.93;2.80;;;;;;;;;;5054862;28;20433;-72
2023/03/14 12:51:05;;;;;;;2.33;1.70;;;;;;;;;;5054238;28;20492;-73
2023/03/14 12:53:49;;;;;;;1.73;1.27;;;;;;;;;;5054551;28;20633;-72
2023/03/14 12:56:21;;;;;;;1.70;1.20;;;;;;;;;;5054757;28;20982;-72
2023/03/14 12:58:52;;;;;;;1.97;1.07;;;;;;;;;;5054967;28;20444;-72
2023/03/14 13:01:21;;;;;;;1.60;1.10;;;;;;;;;;5054675;28;20969;-73
2023/03/14 13:03:49;;;;;;;1.57;1.10;;;;;;;;;;5054237;28;20452;-72
2023/03/14 13:06:31;;;;;;;3.60;1.50;;;;;;;;;;5054608;28;20453;-72
2023/03/14 13:09:00;;;;;;;2.40;1.30;;;;;;;;;;5054481;28;20836;-73
2023/03/14 13:11:27;;;;;;;1.90;1.30;;;;;;;;;;5055374;28;20487;-73
2023/03/14 13:13:58;;;;;;;1.47;1.20;;;;;;;;;;5055664;28;20488;-72
2023/03/14 13:16:26;;;;;;;2.00;1.00;;;;;;;;;;5055728;28;20910;-73
2023/03/14 13:19:01;;;;;;;1.43;1.10;;;;;;;;;;5055637;28;20453;-73
2023/03/14 13:21:29;;;;;;;1.83;1.10;;;;;;;;;;5055456;28;20483;-73
2023/03/14 13:23:58;;;;;;;1.53;0.90;;;;;;;;;;5055859;28;20873;-73
2023/03/14 13:26:34;;;;;;;2.80;1.20;;;;;;;;;;5055392;28;20812;-72
2023/03/14 13:29:01;;;;;;;1.60;1.00;;;;;;;;;;5062204;28;20456;-73
2023/03/14 13:31:30;;;;;;;1.47;0.90;;;;;;;;;;5073253;28;20487;-73
2023/03/14 13:34:01;;;;;;;1.50;0.90;;;;;;;;;;5073635;28;20557;-73
2023/03/14 13:36:28;;;;;;;1.73;1.20;;;;;;;;;;5074021;28;20451;-73
2023/03/14 13:38:58;;;;;;;1.33;0.83;;;;;;;;;;5072480;28;20452;-73
2023/03/14 13:41:26;;;;;;;2.17;1.60;;;;;;;;;;5073562;28;20532;-73
2023/03/14 13:43:59;;;;;;;4.20;1.60;;;;;;;;;;5073888;28;20443;-73
2023/03/14 13:46:26;;;;;;;3.70;1.20;;;;;;;;;;5073632;28;20551;-73
2023/03/14 13:48:54;;;;;;;1.70;1.20;;;;;;;;;;5074084;28;20891;-72
2023/03/14 13:51:22;;;;;;;1.90;1.40;;;;;;;;;;5074331;28;20488;-73
2023/03/14 13:53:50;;;;;;;3.03;1.93;;;;;;;;;;5075693;28;20882;-73
2023/03/14 13:56:18;;;;;;;3.10;2.20;;;;;;;;;;5075057;28;20456;-73
2023/03/14 13:58:46;;;;;;;2.77;1.40;;;;;;;;;;5075186;28;20451;-74
2023/03/14 14:01:17;;;;;;;13.90;3.40;;;;;;;;;;5074982;28;20479;-74
2023/03/14 14:03:45;;;;;;;5.37;3.30;;;;;;;;;;5075089;28;20894;-73
2023/03/14 14:06:20;;;;;;;2.67;1.70;;;;;;;;;;5074271;28;20456;-72
2023/03/14 14:08:47;;;;;;;4.47;1.93;;;;;;;;;;5072562;28;20451;-73
2023/03/14 14:11:19;;;;;;;4.70;2.67;;;;;;;;;;5073249;28;20483;-73
2023/03/14 14:13:47;;;;;;;2.27;1.50;;;;;;;;;;5073139;28;20436;-73
2023/03/14 14:16:17;;;;;;;2.97;2.20;;;;;;;;;;5073331;28;20451;-73
2023/03/14 14:18:44;;;;;;;3.40;2.27;;;;;;;;;;5073286;28;20444;-73
2023/03/14 14:21:13;;;;;;;1.70;1.20;;;;;;;;;;5073355;28;20490;-73
2023/03/14 14:23:40;;;;;;;2.43;1.40;;;;;;;;;;5073268;28;20452;-73
2023/03/14 14:26:07;;;;;;;3.10;1.60;;;;;;;;;;5073061;28;20567;-73
2023/03/14 14:28:38;;;;;;;1.90;1.50;;;;;;;;;;5073123;28;20479;-72
2023/03/14 14:31:07;;;;;;;3.13;2.17;;;;;;;;;;5072576;28;20582;-73
2023/03/14 14:33:42;;;;;;;6.07;3.70;;;;;;;;;;5072788;28;20454;-73
2023/03/14 14:36:20;;;;;;;5.70;4.00;;;;;;;;;;5072896;28;20451;-73
2023/03/14 14:38:58;;;;;;;3.37;3.00;;;;;;;;;;5072572;28;20440;-73
2023/03/14 14:41:28;;;;;;;3.00;1.70;;;;;;;;;;5072717;28;20470;-73
2023/03/14 14:43:55;;;;;;;2.80;2.40;;;;;;;;;;5073161;28;20454;-73
2023/03/14 14:46:22;;;;;;;2.70;2.30;;;;;;;;;;5073210;28;20451;-72
2023/03/14 14:48:57;;;;;;;4.50;2.23;;;;;;;;;;5074043;28;20940;-72
2023/03/14 14:51:25;;;;;;;4.57;2.53;;;;;;;;;;5072704;28;20944;-72